Time;durP1;ratioP1;P1;durP2;ratioP2;P2;SDS_P1;SDS_P2;PMS_P1;PMS_P2;Temp;Humidity;BMP_temperature;BMP_pressure;BME280_temperature;BME280_humidity;BME280_pressure;Samples;Min_cycle;Max_cycle;Signal;HPM_P1;HPM_P2
2023/07/09 00:02:23;;;;;;;7.32;5.03;;;;;;;;;;4896111;29;20088;-78
2023/07/09 00:04:48;;;;;;;9.32;5.20;;;;;;;;;;4913375;29;20048;-79
2023/07/09 00:07:31;;;;;;;9.32;4.75;;;;;;;;;;4913738;29;20036;-79
2023/07/09 00:09:58;;;;;;;6.63;4.32;;;;;;;;;;4913319;29;20578;-78
2023/07/09 00:12:24;;;;;;;8.18;4.88;;;;;;;;;;4913481;29;20051;-80
2023/07/09 00:14:49;;;;;;;8.65;5.00;;;;;;;;;;4896681;29;20513;-79
2023/07/09 00:17:28;;;;;;;9.30;6.05;;;;;;;;;;4913588;29;20056;-78
2023/07/09 00:19:54;;;;;;;10.05;5.13;;;;;;;;;;4908372;29;20032;-78
2023/07/09 00:22:20;;;;;;;7.05;5.20;;;;;;;;;;4913889;29;20034;-79
2023/07/09 00:24:47;;;;;;;9.55;4.70;;;;;;;;;;4912022;29;20485;-78
2023/07/09 00:27:15;;;;;;;7.47;5.07;;;;;;;;;;4913807;29;20076;-78
2023/07/09 00:29:43;;;;;;;10.10;5.07;;;;;;;;;;4913679;29;20459;-79
2023/07/09 00:32:16;;;;;;;7.40;4.85;;;;;;;;;;4912565;29;20043;-78
2023/07/09 00:34:48;;;;;;;7.88;4.72;;;;;;;;;;4913232;29;20100;-78
2023/07/09 00:37:19;;;;;;;7.70;4.60;;;;;;;;;;4912280;29;20473;-80
2023/07/09 00:39:45;;;;;;;;;;;;;;;;;;4913268;29;20024;-79
2023/07/09 00:42:17;;;;;;;6.05;5.13;;;;;;;;;;4913743;29;19918;-81
2023/07/09 00:44:54;;;;;;;6.90;4.28;;;;;;;;;;4913639;29;20052;-79
2023/07/09 00:47:41;;;;;;;11.55;5.00;;;;;;;;;;4896526;29;20032;-79
2023/07/09 00:50:20;;;;;;;6.22;4.50;;;;;;;;;;4914043;29;20480;-80
2023/07/09 00:52:56;;;;;;;8.45;5.07;;;;;;;;;;4913506;29;20067;-77
2023/07/09 00:55:30;;;;;;;7.75;4.60;;;;;;;;;;4896739;29;20457;-78
2023/07/09 00:58:01;;;;;;;6.35;5.07;;;;;;;;;;4912818;29;20028;-79
2023/07/09 01:00:52;;;;;;;8.25;4.78;;;;;;;;;;4913431;29;20046;-78
2023/07/09 01:03:21;;;;;;;;;;;;;;;;;;4912416;29;20058;-78
2023/07/09 01:05:51;;;;;;;6.97;4.72;;;;;;;;;;4913381;29;20107;-79
2023/07/09 01:08:18;;;;;;;6.30;4.78;;;;;;;;;;4881383;29;20472;-79
2023/07/09 01:10:44;;;;;;;7.72;5.00;;;;;;;;;;4913194;29;20039;-78
2023/07/09 01:13:09;;;;;;;9.30;4.80;;;;;;;;;;4913527;29;20028;-79
2023/07/09 01:15:37;;;;;;;8.82;4.97;;;;;;;;;;4914992;29;20086;-79
2023/07/09 01:18:04;;;;;;;5.57;4.82;;;;;;;;;;4914807;29;20052;-81
2023/07/09 01:20:30;;;;;;;8.30;5.28;;;;;;;;;;4899764;29;20096;-78
2023/07/09 01:22:56;;;;;;;7.07;4.80;;;;;;;;;;4916767;29;20024;-79
2023/07/09 01:25:23;;;;;;;7.35;5.28;;;;;;;;;;4899744;29;20063;-79
2023/07/09 01:27:50;;;;;;;6.35;5.28;;;;;;;;;;4899940;29;20131;-78
2023/07/09 01:30:23;;;;;;;7.68;4.63;;;;;;;;;;4899749;29;20119;-77
2023/07/09 01:32:50;;;;;;;7.22;5.22;;;;;;;;;;4916353;29;20124;-78
2023/07/09 01:35:19;;;;;;;21.17;6.05;;;;;;;;;;4916399;29;20032;-79
2023/07/09 01:37:46;;;;;;;7.10;5.28;;;;;;;;;;4899167;29;20091;-78
2023/07/09 01:40:14;;;;;;;10.20;5.05;;;;;;;;;;4916935;29;20059;-79
2023/07/09 01:42:40;;;;;;;6.60;4.97;;;;;;;;;;4916059;29;20488;-78
2023/07/09 01:45:07;;;;;;;10.52;6.18;;;;;;;;;;4898907;29;20056;-79
2023/07/09 01:47:33;;;;;;;8.75;5.30;;;;;;;;;;4916199;29;20318;-79
2023/07/09 01:49:59;;;;;;;5.57;5.03;;;;;;;;;;4915808;29;20500;-78
2023/07/09 01:52:29;;;;;;;6.95;4.97;;;;;;;;;;4899052;29;20111;-80
2023/07/09 01:54:55;;;;;;;9.50;5.00;;;;;;;;;;4915999;29;20036;-78
2023/07/09 01:57:25;;;;;;;8.43;5.15;;;;;;;;;;4916234;29;20028;-78
2023/07/09 01:59:55;;;;;;;7.75;5.03;;;;;;;;;;4928253;29;20016;-78
2023/07/09 02:02:25;;;;;;;8.82;5.75;;;;;;;;;;4917865;29;20031;-78
2023/07/09 02:04:56;;;;;;;9.13;5.18;;;;;;;;;;4935026;29;20507;-77
2023/07/09 02:07:23;;;;;;;7.03;5.20;;;;;;;;;;4935422;29;20499;-78
2023/07/09 02:09:48;;;;;;;9.00;5.50;;;;;;;;;;4935136;29;20388;-78
2023/07/09 02:12:15;;;;;;;7.15;4.95;;;;;;;;;;4934036;29;20023;-78
2023/07/09 02:14:42;;;;;;;6.10;4.80;;;;;;;;;;4913453;29;20542;-79
2023/07/09 02:17:08;;;;;;;7.63;5.03;;;;;;;;;;4894741;29;20056;-78
2023/07/09 02:19:34;;;;;;;11.43;5.30;;;;;;;;;;4888015;29;20135;-78
2023/07/09 02:22:00;;;;;;;10.30;5.38;;;;;;;;;;4915613;29;20035;-78
2023/07/09 02:24:27;;;;;;;8.65;5.75;;;;;;;;;;4915522;29;20084;-79
2023/07/09 02:26:56;;;;;;;7.45;4.78;;;;;;;;;;4914656;29;20374;-78
2023/07/09 02:29:22;;;;;;;6.47;5.25;;;;;;;;;;4898525;29;20136;-78
2023/07/09 02:31:50;;;;;;;14.98;5.97;;;;;;;;;;4895730;29;20040;-79
2023/07/09 02:34:15;;;;;;;9.82;5.18;;;;;;;;;;4897182;29;20501;-80
2023/07/09 02:36:42;;;;;;;6.55;5.10;;;;;;;;;;4868776;29;20347;-78
2023/07/09 02:39:10;;;;;;;6.60;4.97;;;;;;;;;;4908076;29;20034;-79
2023/07/09 02:41:36;;;;;;;9.00;5.88;;;;;;;;;;4934660;29;20031;-78
2023/07/09 02:44:01;;;;;;;7.55;5.65;;;;;;;;;;4934469;29;20449;-79
2023/07/09 02:46:27;;;;;;;9.02;5.30;;;;;;;;;;4916970;29;20087;-78
2023/07/09 02:48:52;;;;;;;6.78;5.05;;;;;;;;;;4932485;29;20045;-78
2023/07/09 02:51:18;;;;;;;8.40;5.85;;;;;;;;;;4933987;29;20042;-77
2023/07/09 02:53:43;;;;;;;5.07;4.57;;;;;;;;;;4933563;29;20032;-78
2023/07/09 02:56:09;;;;;;;8.57;5.10;;;;;;;;;;4933612;29;20031;-79
2023/07/09 02:58:34;;;;;;;12.35;7.20;;;;;;;;;;4931699;29;20043;-77
2023/07/09 03:01:00;;;;;;;6.78;5.03;;;;;;;;;;4933541;29;20019;-78
2023/07/09 03:03:28;;;;;;;8.30;6.22;;;;;;;;;;4932505;29;20028;-78
2023/07/09 03:05:55;;;;;;;7.97;4.93;;;;;;;;;;4933830;29;20162;-79
2023/07/09 03:08:21;;;;;;;8.18;4.82;;;;;;;;;;4934151;29;20495;-79
2023/07/09 03:10:48;;;;;;;8.07;5.65;;;;;;;;;;4933629;29;20039;-78
2023/07/09 03:13:13;;;;;;;9.65;5.30;;;;;;;;;;4932281;29;20016;-78
2023/07/09 03:15:39;;;;;;;10.50;5.43;;;;;;;;;;4933396;29;20437;-79
2023/07/09 03:18:04;;;;;;;13.13;5.50;;;;;;;;;;4924875;29;20112;-78
2023/07/09 03:20:30;;;;;;;7.35;5.20;;;;;;;;;;4913321;29;20020;-78
2023/07/09 03:22:55;;;;;;;9.23;5.03;;;;;;;;;;4897789;29;20028;-78
2023/07/09 03:25:21;;;;;;;7.28;4.72;;;;;;;;;;4915282;29;20020;-78
2023/07/09 03:27:49;;;;;;;7.68;4.93;;;;;;;;;;4914814;29;20509;-78
2023/07/09 03:30:15;;;;;;;12.52;5.63;;;;;;;;;;4914708;29;20028;-78
2023/07/09 03:32:41;;;;;;;8.77;5.80;;;;;;;;;;4894181;29;20035;-77
2023/07/09 03:35:08;;;;;;;10.73;6.28;;;;;;;;;;4909671;29;20036;-79
2023/07/09 03:37:34;;;;;;;13.00;5.82;;;;;;;;;;4895549;29;20030;-78
2023/07/09 03:39:59;;;;;;;10.90;5.22;;;;;;;;;;4913055;29;20050;-78
2023/07/09 03:42:25;;;;;;;7.68;6.18;;;;;;;;;;4914054;29;20485;-78
2023/07/09 03:44:50;;;;;;;10.63;5.88;;;;;;;;;;4913663;29;20032;-79
2023/07/09 03:47:17;;;;;;;10.63;5.55;;;;;;;;;;4913862;29;20071;-78
2023/07/09 03:49:43;;;;;;;10.00;5.25;;;;;;;;;;4897345;29;20660;-80
2023/07/09 03:52:09;;;;;;;6.65;5.68;;;;;;;;;;4896647;29;20095;-79
2023/07/09 03:54:34;;;;;;;6.47;5.03;;;;;;;;;;4896646;29;20111;-78
2023/07/09 03:57:00;;;;;;;6.85;5.10;;;;;;;;;;4913217;29;20032;-78
2023/07/09 03:59:25;;;;;;;7.50;5.25;;;;;;;;;;4913719;29;20413;-79
2023/07/09 04:01:51;;;;;;;7.22;5.13;;;;;;;;;;4902778;29;20071;-78
2023/07/09 04:04:20;;;;;;;11.35;5.90;;;;;;;;;;4912883;29;20064;-78
2023/07/09 04:06:46;;;;;;;15.73;5.50;;;;;;;;;;4915822;29;20444;-78
2023/07/09 04:09:12;;;;;;;7.50;5.30;;;;;;;;;;4933381;29;20476;-79
2023/07/09 04:11:40;;;;;;;10.80;6.00;;;;;;;;;;4933198;29;20059;-79
2023/07/09 04:14:07;;;;;;;7.25;5.43;;;;;;;;;;4931427;29;20031;-78
2023/07/09 04:16:33;;;;;;;7.13;5.05;;;;;;;;;;4932913;29;20114;-79
2023/07/09 04:18:58;;;;;;;8.02;6.30;;;;;;;;;;4914799;29;20103;-78
2023/07/09 04:21:24;;;;;;;9.93;5.28;;;;;;;;;;4896775;29;20028;-78
2023/07/09 04:23:49;;;;;;;7.55;5.38;;;;;;;;;;4913394;29;20058;-78
2023/07/09 04:26:15;;;;;;;12.70;5.55;;;;;;;;;;4913693;29;20028;-78
2023/07/09 04:28:40;;;;;;;13.18;5.88;;;;;;;;;;4913879;29;20099;-79
2023/07/09 04:31:06;;;;;;;8.25;5.13;;;;;;;;;;4896516;29;20473;-79
2023/07/09 04:33:31;;;;;;;7.18;6.13;;;;;;;;;;4913643;29;20114;-78
2023/07/09 04:35:57;;;;;;;7.53;5.38;;;;;;;;;;4913264;29;20031;-78
2023/07/09 04:38:22;;;;;;;6.78;5.28;;;;;;;;;;4895751;29;20111;-78
2023/07/09 04:40:48;;;;;;;8.95;5.40;;;;;;;;;;4912127;29;20039;-78
2023/07/09 04:43:14;;;;;;;5.97;4.47;;;;;;;;;;4896712;29;20024;-79
2023/07/09 04:45:39;;;;;;;10.80;5.90;;;;;;;;;;4912316;29;20042;-78
2023/07/09 04:48:05;;;;;;;12.75;5.88;;;;;;;;;;4896298;29;20025;-78
2023/07/09 04:50:31;;;;;;;9.98;4.80;;;;;;;;;;4900068;29;20447;-78
2023/07/09 04:52:56;;;;;;;11.50;5.70;;;;;;;;;;4899497;29;20119;-78
2023/07/09 04:55:22;;;;;;;10.38;5.65;;;;;;;;;;4917138;29;20056;-78
2023/07/09 04:57:47;;;;;;;8.93;6.15;;;;;;;;;;4915248;29;20028;-78
2023/07/09 05:00:13;;;;;;;8.60;5.65;;;;;;;;;;4900336;29;20024;-80
2023/07/09 05:02:39;;;;;;;7.43;6.00;;;;;;;;;;4916975;29;20071;-79
2023/07/09 05:05:05;;;;;;;8.85;5.95;;;;;;;;;;4900128;29;20488;-79
2023/07/09 05:07:33;;;;;;;7.85;5.63;;;;;;;;;;4899726;29;20067;-79
2023/07/09 05:09:58;;;;;;;8.65;5.85;;;;;;;;;;4899572;29;20047;-78
2023/07/09 05:12:26;;;;;;;8.73;5.43;;;;;;;;;;4916685;29;20360;-79
2023/07/09 05:14:52;;;;;;;6.78;5.43;;;;;;;;;;4916737;29;20421;-79
2023/07/09 05:17:19;;;;;;;7.18;5.78;;;;;;;;;;4898784;29;20100;-78
2023/07/09 05:19:44;;;;;;;10.52;5.75;;;;;;;;;;4916743;29;20445;-79
2023/07/09 05:22:10;;;;;;;10.35;6.10;;;;;;;;;;4915195;29;20062;-78
2023/07/09 05:24:35;;;;;;;11.32;5.65;;;;;;;;;;4914808;29;20377;-78
2023/07/09 05:27:01;;;;;;;8.73;5.57;;;;;;;;;;4914905;29;20016;-78
2023/07/09 05:29:26;;;;;;;6.93;6.07;;;;;;;;;;4916291;29;20047;-78
2023/07/09 05:31:52;;;;;;;7.60;5.63;;;;;;;;;;4915110;29;20429;-78
2023/07/09 05:34:18;;;;;;;7.40;5.80;;;;;;;;;;4916281;29;20035;-78
2023/07/09 05:36:44;;;;;;;8.82;5.78;;;;;;;;;;4915689;29;20066;-80
2023/07/09 05:39:10;;;;;;;6.88;5.25;;;;;;;;;;4915522;29;20452;-78
2023/07/09 05:41:35;;;;;;;9.00;5.57;;;;;;;;;;4917895;29;20062;-79
2023/07/09 05:44:01;;;;;;;10.10;5.88;;;;;;;;;;4936014;29;20147;-79
2023/07/09 05:46:27;;;;;;;7.25;5.57;;;;;;;;;;4935628;29;20036;-80
2023/07/09 05:48:52;;;;;;;8.38;5.32;;;;;;;;;;4917941;29;20526;-78
2023/07/09 05:51:18;;;;;;;7.65;5.68;;;;;;;;;;4935282;29;20031;-78
2023/07/09 05:53:44;;;;;;;8.27;5.82;;;;;;;;;;4935351;29;20028;-78
2023/07/09 05:56:10;;;;;;;8.00;5.72;;;;;;;;;;4933748;29;20034;-78
2023/07/09 05:58:36;;;;;;;6.80;5.30;;;;;;;;;;4916032;29;20480;-78
2023/07/09 06:01:02;;;;;;;10.18;5.88;;;;;;;;;;4915280;29;20416;-78
2023/07/09 06:03:29;;;;;;;11.13;5.90;;;;;;;;;;4915890;29;20322;-78
2023/07/09 06:05:57;;;;;;;6.60;5.18;;;;;;;;;;4915595;29;20468;-78
2023/07/09 06:08:22;;;;;;;7.80;6.30;;;;;;;;;;4916212;29;20032;-79
2023/07/09 06:10:58;;;;;;;6.60;5.18;;;;;;;;;;4883451;29;20115;-80
2023/07/09 06:13:25;;;;;;;11.32;6.50;;;;;;;;;;4899155;29;20039;-78
2023/07/09 06:15:52;;;;;;;9.18;5.32;;;;;;;;;;4915991;29;20028;-78
2023/07/09 06:18:20;;;;;;;7.25;5.07;;;;;;;;;;4897845;29;20074;-78
2023/07/09 06:20:56;;;;;;;6.97;5.32;;;;;;;;;;4897425;29;20517;-78
2023/07/09 06:23:21;;;;;;;8.20;6.25;;;;;;;;;;4896898;29;20029;-77
2023/07/09 06:25:47;;;;;;;8.98;5.43;;;;;;;;;;4897161;29;20048;-79
2023/07/09 06:28:21;;;;;;;9.60;5.68;;;;;;;;;;4895300;29;20020;-79
2023/07/09 06:30:48;;;;;;;7.47;5.90;;;;;;;;;;4897115;29;20395;-78
2023/07/09 06:33:15;;;;;;;6.65;5.63;;;;;;;;;;4895286;29;20032;-79
2023/07/09 06:35:48;;;;;;;8.63;5.95;;;;;;;;;;4896836;29;20036;-78
2023/07/09 06:38:13;;;;;;;7.70;5.72;;;;;;;;;;4912968;29;20454;-77
2023/07/09 06:40:39;;;;;;;8.00;6.25;;;;;;;;;;4913903;29;20116;-80
2023/07/09 06:43:04;;;;;;;10.95;5.38;;;;;;;;;;4915082;29;20089;-79
2023/07/09 06:45:30;;;;;;;7.95;5.85;;;;;;;;;;4915326;29;20032;-78
2023/07/09 06:47:55;;;;;;;8.95;5.07;;;;;;;;;;4914725;29;20027;-80
2023/07/09 06:50:21;;;;;;;7.85;5.75;;;;;;;;;;4913415;29;20088;-80
2023/07/09 06:52:46;;;;;;;7.07;5.07;;;;;;;;;;4915133;29;20512;-79
2023/07/09 06:55:12;;;;;;;8.93;5.68;;;;;;;;;;4913307;29;20028;-79
2023/07/09 06:57:37;;;;;;;6.38;5.38;;;;;;;;;;4924861;29;20027;-80
2023/07/09 07:00:04;;;;;;;7.45;5.10;;;;;;;;;;4917209;29;20031;-79
2023/07/09 07:02:29;;;;;;;7.43;5.30;;;;;;;;;;4933907;29;20099;-78
2023/07/09 07:04:55;;;;;;;8.00;5.43;;;;;;;;;;4932182;29;20110;-77
2023/07/09 07:07:21;;;;;;;7.35;5.70;;;;;;;;;;4917212;29;20051;-78
2023/07/09 07:09:48;;;;;;;7.75;5.72;;;;;;;;;;4916820;29;20046;-79
2023/07/09 07:12:25;;;;;;;11.18;5.95;;;;;;;;;;4932867;29;20032;-79
2023/07/09 07:14:51;;;;;;;8.57;5.75;;;;;;;;;;4916492;29;20040;-79
2023/07/09 07:17:17;;;;;;;10.27;5.57;;;;;;;;;;4921357;29;20060;-78
2023/07/09 07:19:43;;;;;;;11.98;5.80;;;;;;;;;;4913560;29;20040;-79
2023/07/09 07:22:08;;;;;;;7.57;6.15;;;;;;;;;;4914841;29;20053;-79
2023/07/09 07:24:34;;;;;;;9.48;6.70;;;;;;;;;;4913539;29;20365;-78
2023/07/09 07:26:59;;;;;;;7.90;5.45;;;;;;;;;;4914771;29;20058;-78
2023/07/09 07:29:25;;;;;;;10.77;6.32;;;;;;;;;;4914478;29;20028;-78
2023/07/09 07:31:50;;;;;;;7.32;5.65;;;;;;;;;;4914860;29;20449;-78
2023/07/09 07:34:16;;;;;;;7.10;4.88;;;;;;;;;;4914878;29;20087;-79
2023/07/09 07:36:41;;;;;;;10.57;6.43;;;;;;;;;;4913938;29;20500;-80
2023/07/09 07:39:09;;;;;;;6.85;5.75;;;;;;;;;;4897486;29;20381;-78
2023/07/09 07:41:35;;;;;;;8.23;5.68;;;;;;;;;;4913261;29;20032;-78
2023/07/09 07:44:00;;;;;;;7.80;4.97;;;;;;;;;;4897445;29;20157;-76
2023/07/09 07:46:26;;;;;;;6.72;5.35;;;;;;;;;;4914386;29;20491;-79
2023/07/09 07:48:51;;;;;;;12.40;5.68;;;;;;;;;;4914321;29;20499;-79
2023/07/09 07:51:17;;;;;;;5.38;4.82;;;;;;;;;;4914318;29;20036;-78
2023/07/09 07:53:42;;;;;;;7.25;5.13;;;;;;;;;;4897310;29;20445;-78
2023/07/09 07:56:08;;;;;;;9.57;5.70;;;;;;;;;;4913757;29;20495;-79
2023/07/09 07:58:34;;;;;;;9.05;5.90;;;;;;;;;;4896951;29;20046;-78
2023/07/09 08:01:00;;;;;;;6.90;5.25;;;;;;;;;;4897011;29;20490;-80
2023/07/09 08:03:26;;;;;;;14.95;6.25;;;;;;;;;;4913002;29;20103;-79
2023/07/09 08:05:52;;;;;;;6.25;5.38;;;;;;;;;;4896941;29;20347;-79
2023/07/09 08:08:18;;;;;;;9.68;5.88;;;;;;;;;;4914766;29;20306;-78
2023/07/09 08:10:43;;;;;;;10.90;5.43;;;;;;;;;;4896929;29;20036;-79
2023/07/09 08:13:09;;;;;;;9.63;5.38;;;;;;;;;;4912408;29;20050;-79
2023/07/09 08:15:35;;;;;;;8.70;5.93;;;;;;;;;;4912908;29;20043;-80
2023/07/09 08:18:01;;;;;;;11.05;5.53;;;;;;;;;;4913304;29;20059;-79
2023/07/09 08:20:26;;;;;;;9.23;5.50;;;;;;;;;;4913919;29;20028;-79
2023/07/09 08:22:52;;;;;;;6.57;5.22;;;;;;;;;;4897056;29;20253;-79
2023/07/09 08:25:18;;;;;;;8.77;5.30;;;;;;;;;;4917030;29;20107;-81
2023/07/09 08:27:43;;;;;;;6.07;4.47;;;;;;;;;;4917947;29;20055;-80
2023/07/09 08:30:09;;;;;;;8.13;4.80;;;;;;;;;;4917442;29;20044;-82
2023/07/09 08:32:35;;;;;;;8.75;4.72;;;;;;;;;;4900942;29;20031;-80
2023/07/09 08:35:00;;;;;;;11.18;5.68;;;;;;;;;;4917857;29;20083;-78
2023/07/09 08:37:26;;;;;;;8.35;5.20;;;;;;;;;;4925801;29;20034;-79
2023/07/09 08:39:51;;;;;;;4.93;4.40;;;;;;;;;;4919890;29;20078;-79
2023/07/09 08:42:28;;;;;;;6.80;4.80;;;;;;;;;;4936394;29;20122;-82
2023/07/09 08:44:57;;;;;;;6.63;4.50;;;;;;;;;;4920536;29;20040;-80
2023/07/09 08:47:32;;;;;;;5.78;4.30;;;;;;;;;;4936184;29;20032;-80
2023/07/09 08:50:14;;;;;;;5.22;4.45;;;;;;;;;;4937125;29;20057;-80
2023/07/09 08:52:45;;;;;;;4.78;4.20;;;;;;;;;;4919652;29;20028;-80
2023/07/09 08:55:11;;;;;;;8.90;6.93;;;;;;;;;;4936637;29;20456;-80
2023/07/09 08:57:42;;;;;;;5.60;4.75;;;;;;;;;;4918899;29;20126;-80
2023/07/09 09:00:37;;;;;;;22.27;6.22;;;;;;;;;;4919845;29;20127;-79
2023/07/09 09:03:21;;;;;;;5.30;4.78;;;;;;;;;;4919632;29;20028;-80
2023/07/09 09:05:49;;;;;;;6.05;4.10;;;;;;;;;;4918882;29;20369;-80
2023/07/09 09:08:43;;;;;;;5.55;4.45;;;;;;;;;;4919044;29;20027;-80
2023/07/09 09:11:25;;;;;;;6.53;4.32;;;;;;;;;;4935924;29;20033;-80
2023/07/09 09:13:57;;;;;;;4.95;4.20;;;;;;;;;;4934792;29;20028;-81
2023/07/09 09:16:32;;;;;;;6.38;3.90;;;;;;;;;;4925857;29;20556;-79
2023/07/09 09:19:00;;;;;;;6.40;4.07;;;;;;;;;;4917137;29;20075;-79
2023/07/09 09:21:37;;;;;;;5.95;4.65;;;;;;;;;;4899948;29;20035;-80
2023/07/09 09:24:31;;;;;;;7.63;4.25;;;;;;;;;;4916902;29;20159;-80
2023/07/09 09:26:58;;;;;;;6.90;4.90;;;;;;;;;;4915191;29;20048;-80
2023/07/09 09:29:25;;;;;;;4.78;4.28;;;;;;;;;;4899895;29;20039;-80
2023/07/09 09:31:57;;;;;;;9.57;4.65;;;;;;;;;;4899778;29;20112;-80
2023/07/09 09:34:28;;;;;;;7.20;4.85;;;;;;;;;;4884607;29;20027;-80
2023/07/09 09:36:56;;;;;;;10.65;4.38;;;;;;;;;;4927583;29;20091;-81
2023/07/09 09:39:24;;;;;;;5.47;4.10;;;;;;;;;;4935414;29;20032;-80
2023/07/09 09:41:56;;;;;;;7.22;4.25;;;;;;;;;;4934384;29;20059;-81
2023/07/09 09:44:27;;;;;;;6.63;4.35;;;;;;;;;;4918326;29;20015;-81
2023/07/09 09:46:55;;;;;;;;;;;;;;;;;;4918825;29;20024;-80
2023/07/09 09:49:21;;;;;;;8.68;4.13;;;;;;;;;;4933782;29;19922;-81
2023/07/09 09:51:48;;;;;;;4.97;3.92;;;;;;;;;;4935228;29;20038;-82
2023/07/09 09:54:28;;;;;;;5.22;3.90;;;;;;;;;;4915370;29;20103;-81
2023/07/09 09:56:54;;;;;;;4.00;3.60;;;;;;;;;;4916283;29;20488;-80
2023/07/09 09:59:32;;;;;;;4.05;3.13;;;;;;;;;;4899447;29;20035;-81
2023/07/09 10:02:00;;;;;;;4.43;3.97;;;;;;;;;;4899299;29;20032;-80
2023/07/09 10:04:26;;;;;;;5.00;3.60;;;;;;;;;;4915066;29;20032;-82
2023/07/09 10:07:01;;;;;;;6.55;3.95;;;;;;;;;;4899350;29;20099;-81
2023/07/09 10:09:49;;;;;;;4.63;3.38;;;;;;;;;;4916740;29;20055;-81
2023/07/09 10:12:22;;;;;;;3.80;3.50;;;;;;;;;;4915471;29;20035;-80
2023/07/09 10:14:51;;;;;;;11.15;6.00;;;;;;;;;;4915202;29;20139;-81
2023/07/09 10:17:40;;;;;;;15.52;5.35;;;;;;;;;;4910306;29;20083;-78
2023/07/09 10:20:18;;;;;;;3.95;3.60;;;;;;;;;;4916353;29;20527;-80
2023/07/09 10:22:53;;;;;;;3.75;3.10;;;;;;;;;;4898990;29;20032;-80
2023/07/09 10:25:51;;;;;;;7.85;4.03;;;;;;;;;;4916224;29;20020;-80
2023/07/09 10:28:38;;;;;;;5.85;4.28;;;;;;;;;;4915018;29;20082;-81
2023/07/09 10:31:17;;;;;;;7.43;3.47;;;;;;;;;;4916186;29;20071;-82
2023/07/09 10:34:21;;;;;;;4.22;3.50;;;;;;;;;;4915555;29;20095;-80
2023/07/09 10:37:25;;;;;;;8.52;4.35;;;;;;;;;;4915183;29;20103;-82
2023/07/09 10:39:56;;;;;;;3.35;3.05;;;;;;;;;;4895881;29;20492;-80
2023/07/09 10:42:28;;;;;;;6.65;3.85;;;;;;;;;;4898533;29;20544;-80
2023/07/09 10:45:02;;;;;;;6.32;3.80;;;;;;;;;;4898709;29;20024;-81
2023/07/09 10:47:36;;;;;;;6.25;3.88;;;;;;;;;;4915273;29;20034;-79
2023/07/09 10:50:05;;;;;;;5.65;3.45;;;;;;;;;;4913929;29;20055;-80
2023/07/09 10:52:41;;;;;;;4.57;3.40;;;;;;;;;;4914848;29;20034;-81
2023/07/09 10:55:25;;;;;;;5.18;3.60;;;;;;;;;;4914233;29;20079;-80
2023/07/09 10:57:50;;;;;;;5.15;3.80;;;;;;;;;;4915623;29;20032;-80
2023/07/09 11:00:20;;;;;;;6.32;3.80;;;;;;;;;;4914900;29;20442;-80
2023/07/09 11:02:55;;;;;;;6.15;3.78;;;;;;;;;;4898287;29;20104;-81
2023/07/09 11:05:21;;;;;;;6.75;3.72;;;;;;;;;;4898188;29;20472;-81
2023/07/09 11:08:03;;;;;;;6.57;3.63;;;;;;;;;;4898402;29;20024;-81
2023/07/09 11:10:37;;;;;;;4.85;3.67;;;;;;;;;;4897976;29;20048;-81
2023/07/09 11:13:10;;;;;;;4.10;3.40;;;;;;;;;;4915033;29;20071;-82
2023/07/09 11:15:40;;;;;;;5.13;3.75;;;;;;;;;;4917476;29;20023;-81
2023/07/09 11:18:10;;;;;;;10.15;4.30;;;;;;;;;;4916256;29;20496;-81
2023/07/09 11:20:42;;;;;;;5.95;3.58;;;;;;;;;;4917603;29;20031;-80
2023/07/09 11:23:20;;;;;;;5.57;3.30;;;;;;;;;;4933786;29;20061;-80
2023/07/09 11:26:09;;;;;;;5.35;3.55;;;;;;;;;;4921400;29;20031;-81
2023/07/09 11:28:40;;;;;;;5.68;3.60;;;;;;;;;;4935419;29;20471;-81
2023/07/09 11:31:20;;;;;;;6.10;3.83;;;;;;;;;;4936276;29;20420;-81
2023/07/09 11:33:47;;;;;;;6.40;3.38;;;;;;;;;;4935064;29;20443;-80
2023/07/09 11:36:25;;;;;;;6.10;3.33;;;;;;;;;;4919561;29;20110;-80
2023/07/09 11:38:53;;;;;;;4.50;3.67;;;;;;;;;;4883739;29;20032;-81
2023/07/09 11:41:39;;;;;;;8.63;4.10;;;;;;;;;;4897660;29;20095;-80
2023/07/09 11:44:28;;;;;;;7.80;3.67;;;;;;;;;;4914038;29;20024;-79
2023/07/09 11:47:21;;;;;;;6.38;3.90;;;;;;;;;;4898833;29;20028;-81
2023/07/09 11:50:10;;;;;;;5.90;3.55;;;;;;;;;;4899304;29;20023;-81
2023/07/09 11:52:45;;;;;;;7.80;3.13;;;;;;;;;;4916995;29;20495;-80
2023/07/09 11:55:36;;;;;;;6.47;3.63;;;;;;;;;;4914988;29;20272;-79
2023/07/09 11:58:03;;;;;;;3.63;3.28;;;;;;;;;;4898669;29;20052;-81
2023/07/09 12:00:37;;;;;;;4.35;3.47;;;;;;;;;;4897763;29;20047;-80
2023/07/09 12:03:03;;;;;;;5.55;3.17;;;;;;;;;;4915576;29;20035;-80
2023/07/09 12:05:30;;;;;;;3.97;3.30;;;;;;;;;;4899402;29;20035;-80
2023/07/09 12:07:59;;;;;;;7.28;3.83;;;;;;;;;;4915823;29;20028;-82
2023/07/09 12:10:27;;;;;;;3.72;3.28;;;;;;;;;;4915893;29;20098;-80
2023/07/09 12:12:58;;;;;;;4.78;3.33;;;;;;;;;;4915857;29;20024;-81
2023/07/09 12:15:24;;;;;;;;;;;;;;;;;;4898437;29;20118;-81
2023/07/09 12:17:58;;;;;;;5.70;3.42;;;;;;;;;;4914559;29;19919;-81
2023/07/09 12:20:26;;;;;;;4.45;3.58;;;;;;;;;;4898948;29;20032;-82
2023/07/09 12:22:51;;;;;;;4.85;3.67;;;;;;;;;;4915859;29;20107;-80
2023/07/09 12:25:23;;;;;;;7.07;5.78;;;;;;;;;;4896888;29;20650;-81
2023/07/09 12:27:49;;;;;;;6.80;3.72;;;;;;;;;;4897106;29;20536;-80
2023/07/09 12:30:15;;;;;;;6.68;3.17;;;;;;;;;;4914410;29;20036;-81
2023/07/09 12:32:52;;;;;;;8.43;3.50;;;;;;;;;;4896864;29;20036;-81
2023/07/09 12:35:18;;;;;;;5.93;3.25;;;;;;;;;;4902337;29;20033;-82
2023/07/09 12:37:46;;;;;;;5.30;3.55;;;;;;;;;;4933026;29;20392;-81
2023/07/09 12:40:18;;;;;;;4.80;3.53;;;;;;;;;;4933095;29;20063;-82
2023/07/09 12:42:44;;;;;;;5.18;3.67;;;;;;;;;;4933177;29;20038;-81
2023/07/09 12:45:15;;;;;;;4.80;3.20;;;;;;;;;;4933401;29;20067;-81
2023/07/09 12:47:41;;;;;;;5.13;3.35;;;;;;;;;;4933396;29;20033;-81
2023/07/09 12:50:31;;;;;;;5.10;3.40;;;;;;;;;;4916046;29;20122;-81
2023/07/09 12:53:02;;;;;;;3.70;3.33;;;;;;;;;;4916186;29;20501;-83
2023/07/09 12:55:31;;;;;;;7.32;3.67;;;;;;;;;;4922045;29;20032;-82
2023/07/09 12:57:59;;;;;;;6.35;2.92;;;;;;;;;;4914060;29;20575;-82
2023/07/09 13:00:31;;;;;;;4.90;2.80;;;;;;;;;;4896997;29;20346;-82
2023/07/09 13:02:58;;;;;;;4.70;3.03;;;;;;;;;;4914028;29;20024;-82
2023/07/09 13:05:26;;;;;;;5.80;3.45;;;;;;;;;;4914153;29;20044;-83
2023/07/09 13:07:54;;;;;;;5.50;2.80;;;;;;;;;;4914171;29;20024;-82
2023/07/09 13:10:38;;;;;;;4.40;2.58;;;;;;;;;;4915624;29;20535;-82
2023/07/09 13:13:04;;;;;;;4.97;2.70;;;;;;;;;;4900709;29;20039;-81
2023/07/09 13:15:38;;;;;;;4.28;2.70;;;;;;;;;;4910917;29;20107;-82
2023/07/09 13:18:07;;;;;;;5.13;2.80;;;;;;;;;;4913854;29;20374;-83
2023/07/09 13:20:36;;;;;;;5.32;2.53;;;;;;;;;;4915324;29;20514;-81
2023/07/09 13:23:12;;;;;;;3.83;3.20;;;;;;;;;;4916596;29;20040;-81
2023/07/09 13:25:41;;;;;;;5.40;3.03;;;;;;;;;;4915496;29;20036;-82
2023/07/09 13:28:29;;;;;;;5.80;2.90;;;;;;;;;;4920306;29;20039;-83
2023/07/09 13:31:20;;;;;;;4.68;3.38;;;;;;;;;;4921793;29;20033;-82
2023/07/09 13:33:56;;;;;;;4.97;2.85;;;;;;;;;;4917937;29;20059;-81
2023/07/09 13:36:22;;;;;;;4.93;3.13;;;;;;;;;;4919079;29;20032;-83
2023/07/09 13:38:48;;;;;;;3.45;3.15;;;;;;;;;;4897457;29;20493;-83
2023/07/09 13:41:17;;;;;;;4.30;3.40;;;;;;;;;;4898628;29;20115;-83
2023/07/09 13:43:46;;;;;;;3.97;3.10;;;;;;;;;;4898815;29;20393;-83
2023/07/09 13:46:12;;;;;;;5.07;2.90;;;;;;;;;;4913329;29;20025;-82
2023/07/09 13:48:40;;;;;;;4.85;3.22;;;;;;;;;;4896621;29;20708;-83
2023/07/09 13:51:25;;;;;;;5.72;3.10;;;;;;;;;;4898353;29;20059;-82
2023/07/09 13:53:54;;;;;;;2.92;2.60;;;;;;;;;;4897186;29;20041;-80
2023/07/09 13:56:20;;;;;;;5.43;2.95;;;;;;;;;;4916871;29;20413;-82
2023/07/09 13:58:45;;;;;;;3.00;2.50;;;;;;;;;;4915451;29;20480;-83
2023/07/09 14:01:18;;;;;;;5.32;3.47;;;;;;;;;;4915123;29;20103;-83
2023/07/09 14:03:44;;;;;;;3.22;2.92;;;;;;;;;;4916549;29;20047;-83
2023/07/09 14:06:14;;;;;;;6.07;3.20;;;;;;;;;;4915743;29;20056;-83
2023/07/09 14:08:39;;;;;;;3.95;2.53;;;;;;;;;;4900051;29;20401;-83
2023/07/09 14:11:11;;;;;;;5.22;2.80;;;;;;;;;;4917259;29;20100;-82
2023/07/09 14:13:37;;;;;;;7.78;3.08;;;;;;;;;;4916542;29;20056;-83
2023/07/09 14:16:03;;;;;;;5.05;3.30;;;;;;;;;;4929333;29;20065;-83
2023/07/09 14:18:28;;;;;;;3.33;3.03;;;;;;;;;;4933259;29;20145;-82
2023/07/09 14:20:56;;;;;;;4.80;2.83;;;;;;;;;;4934032;29;20027;-82
2023/07/09 14:23:21;;;;;;;4.35;2.45;;;;;;;;;;4933689;29;20439;-83
2023/07/09 14:25:48;;;;;;;6.85;2.70;;;;;;;;;;4936076;29;20125;-83
2023/07/09 14:28:17;;;;;;;3.42;2.55;;;;;;;;;;4934170;29;20087;-82
2023/07/09 14:30:45;;;;;;;3.10;2.80;;;;;;;;;;4935722;29;20496;-83
2023/07/09 14:33:16;;;;;;;2.90;2.47;;;;;;;;;;4934102;29;20043;-84
2023/07/09 14:35:43;;;;;;;4.60;2.85;;;;;;;;;;4919055;29;20036;-83
2023/07/09 14:38:23;;;;;;;5.97;3.00;;;;;;;;;;4899281;29;20067;-82
2023/07/09 14:40:52;;;;;;;3.55;2.80;;;;;;;;;;4916535;29;20032;-84
2023/07/09 14:43:17;;;;;;;8.63;3.30;;;;;;;;;;4899121;29;20107;-83
2023/07/09 14:45:43;;;;;;;3.45;2.85;;;;;;;;;;4899201;29;20119;-81
2023/07/09 14:48:14;;;;;;;6.38;2.67;;;;;;;;;;4899188;29;20051;-82
2023/07/09 14:50:41;;;;;;;6.30;3.03;;;;;;;;;;4883446;29;20479;-83
2023/07/09 14:53:19;;;;;;;4.15;3.25;;;;;;;;;;4898863;29;20123;-82
2023/07/09 14:55:45;;;;;;;6.45;3.47;;;;;;;;;;4912629;29;20111;-82
2023/07/09 14:58:21;;;;;;;6.10;2.95;;;;;;;;;;4916048;29;20406;-83